createdAt,value
2023-02-06T00:26:43.008Z,0.40
2023-02-06T00:29:10.232Z,0.40
2023-02-06T00:34:22.502Z,0.30
2023-02-06T00:42:01.051Z,0.20
2023-02-06T00:49:40.991Z,-1.40
2023-02-06T00:52:13.791Z,-0.60
2023-02-06T01:00:03.708Z,-0.10
2023-02-06T01:02:51.519Z,0.60
2023-02-06T01:05:36.568Z,-0.20
2023-02-06T01:08:10.659Z,-0.10
2023-02-06T01:10:46.553Z,-0.20
2023-02-06T01:20:48.613Z,0.00
2023-02-06T01:30:41.857Z,1.30
2023-02-06T01:33:09.241Z,-0.40
2023-02-06T01:38:05.003Z,-0.30
2023-02-06T01:43:19.715Z,1.30
2023-02-06T01:45:49.893Z,-0.50
2023-02-06T01:48:37.441Z,-0.10
2023-02-06T01:51:17.766Z,-1.50
2023-02-06T01:53:50.674Z,-1.50
2023-02-06T01:56:26.409Z,1.70
2023-02-06T01:59:03.190Z,-0.60
2023-02-06T02:01:30.783Z,-1.40
2023-02-06T02:04:06.656Z,-0.60
2023-02-06T02:06:36.066Z,-0.50
2023-02-06T02:09:10.341Z,-0.60
2023-02-06T02:11:46.692Z,-0.80
2023-02-06T02:14:25.430Z,-2.00
2023-02-06T02:17:25.973Z,-0.80
2023-02-06T02:20:15.208Z,-0.60
2023-02-06T02:23:06.128Z,-0.70
2023-02-06T02:26:00.738Z,-0.90
2023-02-06T02:28:30.826Z,-0.70
2023-02-06T02:31:09.883Z,-1.00
2023-02-06T02:33:42.755Z,0.50
2023-02-06T02:36:48.651Z,-2.10
2023-02-06T02:39:19.236Z,-0.80
2023-02-06T02:42:19.195Z,-2.10
2023-02-06T02:45:00.198Z,-2.30
2023-02-06T02:47:38.870Z,1.10
2023-02-06T02:50:06.870Z,-0.60
2023-02-06T02:55:01.428Z,-0.90
2023-02-06T02:57:31.927Z,-0.90
2023-02-06T03:00:00.995Z,-0.80
2023-02-06T03:02:38.081Z,-0.80
2023-02-06T03:05:09.002Z,-0.90
2023-02-06T03:07:45.321Z,-1.90
2023-02-06T03:10:15.109Z,-1.00
2023-02-06T03:12:52.648Z,-0.90
2023-02-06T03:15:29.996Z,-0.90
2023-02-06T03:18:15.924Z,-0.80
2023-02-06T03:20:46.585Z,-0.80
2023-02-06T03:23:21.888Z,-0.80
2023-02-06T03:25:54.958Z,-0.90
2023-02-06T03:28:31.219Z,-0.90
2023-02-06T03:31:03.026Z,-1.70
2023-02-06T03:33:37.932Z,-1.00
2023-02-06T03:36:06.063Z,-0.60
2023-02-06T03:38:33.314Z,-0.80
2023-02-06T03:41:01.566Z,1.70
2023-02-06T03:43:30.508Z,-1.00
2023-02-06T03:46:02.903Z,-2.30
2023-02-06T03:48:43.841Z,-1.50
2023-02-06T03:51:20.747Z,-1.70
2023-02-06T03:53:50.602Z,-0.90
2023-02-06T03:56:27.946Z,-0.90
2023-02-06T04:03:51.332Z,-0.60
2023-02-06T04:06:47.588Z,-0.60
2023-02-06T04:11:53.509Z,-0.50
2023-02-06T04:14:23.224Z,-0.50
2023-02-06T04:19:27.117Z,-0.50
2023-02-06T04:22:08.697Z,-0.30
2023-02-06T04:27:21.844Z,-0.40
2023-02-06T04:30:04.804Z,-0.40
2023-02-06T04:32:32.475Z,-1.80
2023-02-06T04:35:13.717Z,-1.20
2023-02-06T04:38:01.991Z,0.10
2023-02-06T04:46:04.893Z,-0.80
2023-02-06T04:51:21.161Z,-0.60
2023-02-06T04:53:54.222Z,-1.80
2023-02-06T04:56:49.910Z,-0.70
2023-02-06T04:59:35.728Z,-0.60
2023-02-06T05:02:07.549Z,-1.20
2023-02-06T05:09:44.985Z,-1.60
2023-02-06T05:17:39.631Z,-0.80
2023-02-06T05:28:45.004Z,-1.40
2023-02-06T05:31:31.080Z,-0.10
2023-02-06T05:36:38.464Z,-0.10
2023-02-06T05:39:21.163Z,0.00
2023-02-06T05:41:57.256Z,-0.30
2023-02-06T05:44:32.159Z,1.00
2023-02-06T05:47:06.211Z,0.20
2023-02-06T05:49:36.743Z,0.40
2023-02-06T05:52:09.456Z,0.50
2023-02-06T05:59:52.556Z,0.80
2023-02-06T06:02:47.399Z,0.90
2023-02-06T06:13:44.196Z,0.70
2023-02-06T06:24:19.350Z,1.10
2023-02-06T06:27:12.655Z,1.20
2023-02-06T06:29:50.367Z,1.10
2023-02-06T06:32:46.163Z,1.10
2023-02-06T06:35:23.613Z,1.10
2023-02-06T06:37:53.452Z,1.30
2023-02-06T06:42:48.139Z,1.50
2023-02-06T06:47:42.708Z,1.20
2023-02-06T06:50:10.247Z,0.40
2023-02-06T06:52:37.403Z,1.20
2023-02-06T06:55:04.630Z,1.30
2023-02-06T06:57:32.526Z,1.30
2023-02-06T06:59:59.747Z,1.80
2023-02-06T07:04:56.005Z,1.20
2023-02-06T07:07:23.242Z,1.30
2023-02-06T07:14:45.369Z,1.50
2023-02-06T07:19:39.914Z,1.30
2023-02-06T07:22:06.958Z,1.20
2023-02-06T07:24:33.966Z,1.40
2023-02-06T07:27:01.165Z,1.30
2023-02-06T07:31:55.656Z,1.50
2023-02-06T07:34:22.869Z,1.70
2023-02-06T07:39:20.398Z,1.40
2023-02-06T07:41:49.906Z,1.50
2023-02-06T07:44:20.037Z,-0.20
2023-02-06T07:46:47.745Z,1.60
2023-02-06T07:49:17.969Z,1.60
2023-02-06T07:51:46.936Z,1.70
2023-02-06T07:54:14.650Z,3.50
2023-02-06T07:56:41.672Z,1.60
2023-02-06T08:01:36.362Z,1.30
2023-02-06T08:04:03.997Z,3.20
2023-02-06T08:09:00.025Z,2.50
2023-02-06T08:11:30.305Z,2.40
2023-02-06T08:13:58.180Z,3.30
2023-02-06T08:16:28.372Z,1.70
2023-02-06T08:21:29.678Z,3.70
2023-02-06T08:24:05.316Z,1.70
2023-02-06T08:26:32.768Z,3.00
2023-02-06T08:29:03.730Z,0.20
2023-02-06T08:31:39.146Z,2.00
2023-02-06T08:34:08.617Z,2.20
2023-02-06T08:36:36.306Z,2.30
2023-02-06T08:39:07.615Z,2.40
2023-02-06T08:41:39.082Z,2.30
2023-02-06T08:44:11.856Z,2.60
2023-02-06T08:46:39.618Z,2.70
2023-02-06T08:49:20.451Z,2.90
2023-02-06T08:51:49.596Z,2.90
2023-02-06T08:54:19.828Z,4.60
2023-02-06T08:56:56.794Z,4.00
2023-02-06T08:59:24.247Z,2.90
2023-02-06T09:06:49.243Z,3.40
2023-02-06T09:09:21.370Z,4.00
2023-02-06T09:11:48.627Z,4.90
2023-02-06T09:14:18.776Z,3.90
2023-02-06T09:16:46.156Z,3.80
2023-02-06T09:19:13.726Z,4.80
2023-02-06T09:21:40.807Z,5.30
2023-02-06T09:24:09.492Z,4.20
2023-02-06T09:26:58.097Z,5.70
2023-02-06T09:29:29.305Z,3.60
2023-02-06T09:31:59.442Z,5.30
2023-02-06T09:34:27.560Z,4.40
2023-02-06T09:36:56.918Z,4.70
2023-02-06T09:39:24.660Z,4.80
2023-02-06T09:42:02.654Z,4.90
2023-02-06T09:44:37.071Z,5.10
2023-02-06T09:47:33.151Z,5.00
2023-02-06T09:50:12.789Z,5.10
2023-02-06T09:53:13.082Z,4.40
2023-02-06T09:55:46.987Z,5.40
2023-02-06T09:58:30.384Z,5.50
2023-02-06T10:01:39.683Z,6.70
2023-02-06T10:04:20.806Z,5.30
2023-02-06T10:07:49.356Z,8.90
2023-02-06T10:14:00.363Z,6.30
2023-02-06T10:16:41.287Z,5.50
2023-02-06T10:19:33.816Z,6.10
2023-02-06T10:22:29.945Z,7.30
2023-02-06T10:25:36.323Z,8.00
2023-02-06T10:28:25.823Z,6.70
2023-02-06T10:31:28.420Z,6.70
2023-02-06T10:34:14.232Z,6.80
2023-02-06T10:37:21.954Z,7.00
2023-02-06T10:40:32.956Z,7.60
2023-02-06T10:43:30.060Z,7.60
2023-02-06T10:46:29.104Z,7.50
2023-02-06T10:49:34.940Z,6.60
2023-02-06T10:52:31.582Z,6.00
2023-02-06T10:55:28.441Z,7.30
2023-02-06T10:58:36.858Z,8.10
2023-02-06T11:01:26.070Z,8.10
2023-02-06T11:04:19.881Z,8.50
2023-02-06T11:07:07.652Z,8.70
2023-02-06T11:09:58.795Z,7.70
2023-02-06T11:12:30.983Z,6.80
2023-02-06T11:15:13.297Z,6.70
2023-02-06T11:18:03.868Z,7.20
2023-02-06T11:20:59.170Z,6.60
2023-02-06T11:23:36.972Z,6.80
2023-02-06T11:26:25.033Z,7.20
2023-02-06T11:29:02.896Z,7.60
2023-02-06T11:32:10.263Z,7.60
2023-02-06T11:34:53.556Z,8.90
2023-02-06T11:37:37.460Z,8.20
2023-02-06T11:40:22.543Z,7.70
2023-02-06T11:42:56.240Z,8.80
2023-02-06T11:45:34.712Z,7.40
2023-02-06T11:48:02.850Z,8.00
2023-02-06T11:50:40.066Z,7.70
2023-02-06T11:53:20.216Z,7.50
2023-02-06T11:56:18.867Z,7.00
2023-02-06T11:58:46.565Z,6.50
2023-02-06T12:01:26.692Z,6.30
2023-02-06T12:04:04.878Z,7.40
2023-02-06T12:06:40.871Z,6.70
2023-02-06T12:09:14.903Z,6.60
2023-02-06T12:11:55.162Z,10.40
2023-02-06T12:14:40.336Z,5.90
2023-02-06T12:17:29.895Z,6.40
2023-02-06T12:20:35.768Z,5.00
2023-02-06T12:23:34.078Z,5.80
2023-02-06T12:26:16.470Z,8.00
2023-02-06T12:29:53.257Z,7.30
2023-02-06T12:32:44.707Z,7.60
2023-02-06T12:35:51.310Z,6.50
2023-02-06T12:39:02.501Z,6.10
2023-02-06T12:42:17.275Z,5.80
2023-02-06T12:45:00.115Z,5.70
2023-02-06T12:47:59.000Z,6.40
2023-02-06T12:50:59.641Z,6.30
2023-02-06T12:53:39.450Z,7.80
2023-02-06T12:56:35.738Z,7.70
2023-02-06T13:02:06.743Z,6.00
2023-02-06T13:04:39.723Z,6.50
2023-02-06T13:07:14.816Z,6.40
2023-02-06T13:09:52.149Z,7.30
2023-02-06T13:12:26.305Z,7.50
2023-02-06T13:15:08.316Z,6.10
2023-02-06T13:27:50.377Z,7.00
2023-02-06T13:30:52.578Z,5.90
2023-02-06T13:33:49.774Z,4.90
2023-02-06T13:36:58.758Z,5.60
2023-02-06T13:39:37.214Z,5.80
2023-02-06T13:42:54.920Z,5.70
2023-02-06T13:47:39.265Z,4.80
2023-02-06T14:07:48.675Z,5.60
2023-02-06T14:14:56.680Z,5.00
2023-02-06T14:17:59.286Z,5.10
2023-02-06T14:21:08.853Z,4.80
2023-02-06T14:23:58.454Z,5.10
2023-02-06T14:29:32.425Z,4.70
2023-02-06T14:34:45.766Z,4.90
2023-02-06T14:37:45.476Z,4.90
2023-02-06T14:40:25.465Z,4.90
2023-02-06T14:43:15.251Z,5.00
2023-02-06T14:46:07.923Z,4.90
2023-02-06T14:48:44.760Z,4.90
2023-02-06T14:51:27.256Z,4.80
2023-02-06T14:54:02.999Z,4.70
2023-02-06T14:56:39.406Z,4.60
2023-02-06T14:59:12.993Z,4.60
2023-02-06T15:01:47.161Z,3.60
2023-02-06T15:04:44.011Z,4.10
2023-02-06T15:07:51.738Z,4.00
2023-02-06T15:14:54.988Z,3.70
2023-02-06T15:17:04.788Z,3.60
2023-02-06T15:20:45.832Z,3.00
2023-02-06T15:23:41.652Z,3.00
2023-02-06T15:26:45.853Z,3.60
2023-02-06T15:29:36.747Z,3.50
2023-02-06T15:32:18.717Z,3.40
2023-02-06T15:34:52.569Z,3.40
2023-02-06T15:40:52.016Z,3.30
2023-02-06T15:44:41.368Z,3.20
2023-02-06T15:47:47.449Z,3.00
2023-02-06T15:50:45.892Z,4.40
2023-02-06T15:53:37.595Z,2.90
2023-02-06T15:56:39.143Z,2.80
2023-02-06T15:59:16.640Z,2.80
2023-02-06T16:01:47.064Z,4.30
2023-02-06T16:05:44.248Z,2.60
2023-02-06T16:07:56.149Z,2.60
2023-02-06T16:10:30.028Z,2.50
2023-02-06T16:13:43.096Z,2.50
2023-02-06T16:20:08.140Z,2.50
2023-02-06T16:22:44.244Z,2.40
2023-02-06T16:25:40.816Z,2.40
2023-02-06T16:28:50.398Z,2.40
2023-02-06T16:31:24.618Z,2.30
2023-02-06T16:33:53.763Z,1.90
2023-02-06T16:42:48.291Z,2.10
2023-02-06T16:45:53.526Z,2.10
2023-02-06T16:48:38.527Z,0.60
2023-02-06T16:54:22.523Z,1.80
2023-02-06T16:57:28.154Z,1.70
2023-02-06T17:03:48.737Z,1.50
2023-02-06T17:06:48.815Z,3.90
2023-02-06T17:22:44.747Z,-0.10
2023-02-06T18:01:42.625Z,3.10
2023-02-06T18:12:36.712Z,1.70
2023-02-06T18:15:43.958Z,1.90
2023-02-06T18:20:50.529Z,1.90
2023-02-06T18:25:48.990Z,1.80
2023-02-06T18:28:37.989Z,1.60
2023-02-06T18:31:22.124Z,1.90
2023-02-06T18:34:10.800Z,1.80
2023-02-06T18:36:38.553Z,0.80
2023-02-06T18:39:10.668Z,1.70
2023-02-06T18:42:00.781Z,1.60
2023-02-06T18:44:31.495Z,1.50
2023-02-06T18:47:05.683Z,1.60
2023-02-06T18:49:34.761Z,1.60
2023-02-06T18:55:21.628Z,2.00
2023-02-06T19:11:32.734Z,0.30
2023-02-06T19:17:00.541Z,1.60
2023-02-06T19:19:41.476Z,2.90
2023-02-06T19:27:45.682Z,1.20
2023-02-06T19:30:22.167Z,1.30
2023-02-06T20:32:08.226Z,0.30
2023-02-06T20:37:29.832Z,-0.10
2023-02-06T20:43:00.101Z,-0.10
2023-02-06T20:48:14.554Z,0.60
2023-02-06T20:59:38.473Z,-0.50
2023-02-06T21:05:01.813Z,2.00
2023-02-06T21:12:53.331Z,-2.00
2023-02-06T21:15:41.934Z,-0.40
2023-02-06T21:18:39.248Z,-0.30
2023-02-06T21:21:17.405Z,-0.20
2023-02-06T21:23:47.604Z,-0.90
2023-02-06T21:29:02.606Z,-0.20
2023-02-06T21:34:21.581Z,-0.60
2023-02-06T21:36:49.613Z,-0.30
2023-02-06T21:39:19.873Z,-0.30
2023-02-06T21:41:47.868Z,-0.30
2023-02-06T21:44:14.975Z,-0.40
2023-02-06T21:51:39.284Z,0.10
2023-02-06T21:54:06.772Z,-0.50
2023-02-06T21:56:36.411Z,-0.40
2023-02-06T21:59:04.571Z,-0.30
2023-02-06T22:01:35.082Z,-0.40
2023-02-06T22:04:03.310Z,-0.40
2023-02-06T22:11:34.419Z,-0.50
2023-02-06T22:14:08.249Z,-0.60
2023-02-06T22:21:34.371Z,-0.50
2023-02-06T22:24:07.298Z,-0.70
2023-02-06T22:26:38.482Z,-0.80
2023-02-06T22:29:07.876Z,-0.90
2023-02-06T22:31:35.538Z,0.00
2023-02-06T22:34:03.233Z,-2.40
2023-02-06T22:36:32.254Z,-0.90
2023-02-06T22:39:03.205Z,-0.90
2023-02-06T22:41:30.607Z,2.20
2023-02-06T22:46:27.037Z,-0.90
2023-02-06T22:48:55.085Z,-0.90
2023-02-06T22:51:23.219Z,-0.90
2023-02-06T22:56:27.222Z,-0.80
2023-02-06T22:58:56.228Z,-0.80
2023-02-06T23:01:30.216Z,-0.80
2023-02-06T23:06:36.032Z,-1.50
2023-02-06T23:09:12.864Z,-0.70
2023-02-06T23:14:13.242Z,-0.70
2023-02-06T23:16:43.598Z,-0.30
2023-02-06T23:19:13.139Z,-0.80
2023-02-06T23:21:42.844Z,-2.30
2023-02-06T23:24:11.026Z,-0.70
2023-02-06T23:26:41.443Z,-1.30
2023-02-06T23:29:09.968Z,-0.70
2023-02-06T23:31:37.586Z,-0.70
2023-02-06T23:34:04.715Z,-2.10
2023-02-06T23:36:31.785Z,-0.60
2023-02-06T23:39:01.660Z,-0.60
2023-02-06T23:41:33.313Z,-0.60
2023-02-06T23:44:10.528Z,-0.60
2023-02-06T23:46:43.427Z,-0.50
2023-02-06T23:49:16.236Z,-0.50
2023-02-06T23:55:00.143Z,-0.50
